Time;durP1;ratioP1;P1;durP2;ratioP2;P2;SDS_P1;SDS_P2;PMS_P1;PMS_P2;Temp;Humidity;BMP_temperature;BMP_pressure;BME280_temperature;BME280_humidity;BME280_pressure;Samples;Min_cycle;Max_cycle;Signal;HPM_P1;HPM_P2
2023/04/02 00:01:22;;;;;;;14.18;3.47;;;15.00;96.70;;;;;;5141574;27;20035;-72
2023/04/02 00:04:07;;;;;;;12.55;3.13;;;14.90;96.70;;;;;;5136957;27;21084;-72
2023/04/02 00:06:48;;;;;;;14.05;3.13;;;14.80;96.70;;;;;;5144471;27;20049;-71
2023/04/02 00:09:31;;;;;;;13.30;2.70;;;14.90;96.70;;;;;;5139024;27;20437;-71
2023/04/02 00:12:14;;;;;;;11.88;3.03;;;14.90;96.70;;;;;;5145078;27;20440;-72
2023/04/02 00:14:48;;;;;;;13.77;3.58;;;14.80;96.70;;;;;;5138562;27;20030;-72
2023/04/02 00:17:29;;;;;;;11.13;3.00;;;14.70;96.70;;;;;;5137623;27;20042;-72
2023/04/02 00:19:59;;;;;;;12.05;3.22;;;14.70;96.70;;;;;;5138290;27;20117;-71
2023/04/02 00:22:33;;;;;;;14.90;3.55;;;14.70;96.70;;;;;;5118553;27;20046;-71
2023/04/02 00:25:11;;;;;;;15.90;2.78;;;14.70;96.70;;;;;;5137585;27;20763;-71
2023/04/02 00:27:39;;;;;;;12.10;2.65;;;14.70;96.70;;;;;;5138457;27;20043;-71
2023/04/02 00:30:11;;;;;;;10.65;2.60;;;14.80;96.70;;;;;;5121253;27;20039;-71
2023/04/02 00:32:39;;;;;;;12.20;2.80;;;14.80;96.70;;;;;;5135904;27;20289;-71
2023/04/02 00:35:16;;;;;;;10.68;3.10;;;14.80;96.70;;;;;;5142818;27;20039;-71
2023/04/02 00:37:46;;;;;;;11.52;3.05;;;14.70;96.70;;;;;;5135805;27;20477;-71
2023/04/02 00:40:19;;;;;;;15.10;2.85;;;14.60;96.70;;;;;;5136740;27;20046;-71
2023/04/02 00:42:48;;;;;;;12.55;2.83;;;14.60;96.70;;;;;;5137124;27;20046;-71
2023/04/02 00:45:22;;;;;;;10.85;3.13;;;14.50;96.70;;;;;;5136909;27;20066;-71
2023/04/02 00:47:52;;;;;;;9.93;2.80;;;14.50;96.70;;;;;;5137168;27;20038;-71
2023/04/02 00:50:27;;;;;;;12.50;2.70;;;14.40;96.70;;;;;;5142231;27;20057;-71
2023/04/02 00:52:59;;;;;;;11.00;3.05;;;14.40;96.70;;;;;;5138468;27;20043;-72
2023/04/02 00:55:34;;;;;;;13.40;3.38;;;14.40;96.70;;;;;;5140304;27;20046;-71
2023/04/02 00:58:03;;;;;;;12.35;2.55;;;14.40;96.70;;;;;;5136350;27;20039;-72
2023/04/02 01:00:34;;;;;;;12.05;3.35;;;14.40;96.70;;;;;;5138405;27;20046;-71
2023/04/02 01:03:33;;;;;;;11.70;2.53;;;14.40;96.70;;;;;;5140078;27;20143;-72
2023/04/02 01:06:09;;;;;;;10.57;2.60;;;14.50;96.70;;;;;;5122281;27;20034;-71
2023/04/02 01:09:07;;;;;;;10.93;2.70;;;14.40;96.70;;;;;;5137842;27;20047;-71
2023/04/02 01:11:50;;;;;;;11.65;2.35;;;14.30;96.70;;;;;;5117939;27;20380;-71
2023/04/02 01:14:34;;;;;;;11.55;2.53;;;14.20;96.70;;;;;;5134191;27;20137;-71
2023/04/02 01:17:14;;;;;;;9.02;2.15;;;14.30;96.70;;;;;;5139478;27;20487;-71
2023/04/02 01:20:15;;;;;;;8.70;2.35;;;14.30;96.70;;;;;;5155382;27;20047;-71
2023/04/02 01:22:50;;;;;;;9.52;2.60;;;14.30;96.70;;;;;;5136871;27;20035;-71
2023/04/02 01:25:27;;;;;;;12.48;2.38;;;14.20;96.70;;;;;;5136384;27;20053;-71
2023/04/02 01:27:58;;;;;;;;;;;14.20;96.70;;;;;;5119474;27;20106;-71
2023/04/02 01:30:28;;;;;;;10.15;1.85;;;14.10;96.70;;;;;;5137152;27;19927;-71
2023/04/02 01:33:05;;;;;;;11.45;2.30;;;14.10;96.70;;;;;;5135033;27;20043;-71
2023/04/02 01:35:40;;;;;;;10.48;2.30;;;14.10;96.70;;;;;;5135269;27;20043;-71
2023/04/02 01:38:12;;;;;;;13.00;2.92;;;14.20;96.70;;;;;;5135385;27;20067;-71
2023/04/02 01:40:47;;;;;;;10.32;2.20;;;14.20;96.70;;;;;;5135397;27;20166;-71
2023/04/02 01:43:23;;;;;;;10.55;2.30;;;14.20;96.70;;;;;;5133151;27;20181;-71
2023/04/02 01:45:52;;;;;;;9.13;2.08;;;14.20;96.70;;;;;;5125190;27;20047;-71
2023/04/02 01:48:26;;;;;;;10.52;2.30;;;14.20;96.70;;;;;;5143292;27;20057;-71
2023/04/02 01:50:55;;;;;;;12.00;2.83;;;14.20;96.70;;;;;;5142615;27;20042;-71
2023/04/02 01:53:29;;;;;;;11.50;2.58;;;14.10;96.70;;;;;;5141193;27;21868;-71
2023/04/02 01:55:59;;;;;;;11.20;2.55;;;14.00;96.70;;;;;;5141529;27;20161;-71
2023/04/02 01:58:30;;;;;;;10.18;2.17;;;14.00;96.70;;;;;;5139568;27;20527;-71
2023/04/02 02:01:08;;;;;;;11.05;2.80;;;14.00;96.70;;;;;;5144394;27;20038;-71
2023/04/02 02:03:39;;;;;;;11.32;2.55;;;14.00;96.70;;;;;;5138723;27;20137;-72
2023/04/02 02:06:11;;;;;;;8.85;2.10;;;14.00;96.70;;;;;;5140356;27;20529;-71
2023/04/02 02:08:45;;;;;;;11.88;2.33;;;13.90;96.70;;;;;;5139102;27;20055;-71
2023/04/02 02:11:17;;;;;;;10.48;2.58;;;13.90;96.70;;;;;;5123784;27;20043;-71
2023/04/02 02:13:46;;;;;;;10.35;2.80;;;13.80;96.70;;;;;;5141459;27;20050;-71
2023/04/02 02:16:17;;;;;;;7.90;2.20;;;13.70;96.70;;;;;;5139324;27;20039;-72
2023/04/02 02:18:49;;;;;;;10.18;2.40;;;13.70;96.70;;;;;;5125855;27;20123;-72
2023/04/02 02:21:28;;;;;;;10.38;2.53;;;13.70;96.70;;;;;;5137277;27;20860;-71
2023/04/02 02:23:57;;;;;;;6.75;1.80;;;13.80;96.70;;;;;;5122494;27;20042;-71
2023/04/02 02:26:27;;;;;;;11.68;2.17;;;13.80;96.70;;;;;;5137760;27;20095;-71
2023/04/02 02:28:56;;;;;;;11.63;2.72;;;13.60;96.70;;;;;;5142986;27;20119;-71
2023/04/02 02:31:32;;;;;;;9.63;2.22;;;13.60;96.70;;;;;;5138654;27;20463;-71
2023/04/02 02:34:07;;;;;;;10.55;2.53;;;13.50;96.70;;;;;;5121914;27;20506;-71
2023/04/02 02:36:44;;;;;;;11.30;2.50;;;13.40;96.70;;;;;;5140530;27;20039;-71
2023/04/02 02:39:19;;;;;;;12.55;3.20;;;13.60;96.70;;;;;;5139037;27;20053;-71
2023/04/02 02:41:51;;;;;;;9.45;2.55;;;13.50;96.70;;;;;;5145363;27;20046;-71
2023/04/02 02:44:22;;;;;;;12.05;3.10;;;13.40;96.70;;;;;;5137574;27;21623;-71
2023/04/02 02:46:55;;;;;;;11.93;2.75;;;13.30;96.70;;;;;;5122775;27;20161;-71
2023/04/02 02:49:28;;;;;;;14.77;2.80;;;13.40;96.70;;;;;;5135914;27;20062;-71
2023/04/02 02:52:00;;;;;;;15.27;3.30;;;13.40;96.70;;;;;;5138120;27;20049;-71
2023/04/02 02:54:42;;;;;;;9.00;2.38;;;13.30;96.70;;;;;;5126229;27;20042;-71
2023/04/02 02:57:13;;;;;;;10.25;2.95;;;13.30;96.70;;;;;;5133261;27;20066;-71
2023/04/02 02:59:42;;;;;;;11.05;3.08;;;13.40;96.70;;;;;;5140502;27;20085;-71
2023/04/02 03:02:13;;;;;;;13.05;2.45;;;13.30;96.70;;;;;;5143126;27;20042;-71
2023/04/02 03:04:46;;;;;;;8.05;2.40;;;13.30;96.70;;;;;;5138552;27;20161;-71
2023/04/02 03:07:24;;;;;;;10.20;2.72;;;13.30;96.70;;;;;;5138821;27;20065;-72
2023/04/02 03:10:04;;;;;;;8.55;2.53;;;13.20;96.70;;;;;;5138622;27;20129;-72
2023/04/02 03:12:42;;;;;;;12.68;2.53;;;13.20;96.70;;;;;;5139084;27;20035;-72
2023/04/02 03:15:20;;;;;;;9.82;2.58;;;13.10;96.70;;;;;;5141737;27;20030;-72
2023/04/02 03:17:54;;;;;;;8.65;2.55;;;13.10;96.70;;;;;;5134634;27;20129;-72
2023/04/02 03:20:31;;;;;;;7.15;2.20;;;13.10;96.70;;;;;;5136802;27;20072;-72
2023/04/02 03:23:04;;;;;;;9.68;2.38;;;13.20;96.70;;;;;;5139770;27;20050;-72
2023/04/02 03:25:39;;;;;;;10.10;2.30;;;13.20;96.70;;;;;;5144823;27;20030;-72
2023/04/02 03:28:14;;;;;;;14.25;2.90;;;13.20;96.70;;;;;;5135786;27;20053;-72
2023/04/02 03:30:46;;;;;;;12.38;2.83;;;13.20;96.70;;;;;;5139009;27;20209;-71
2023/04/02 03:33:24;;;;;;;11.07;2.92;;;13.10;96.70;;;;;;5141025;27;20043;-71
2023/04/02 03:35:58;;;;;;;11.63;2.88;;;13.00;96.70;;;;;;5142933;27;20098;-71
2023/04/02 03:38:29;;;;;;;10.23;2.55;;;13.10;96.70;;;;;;5144823;27;20053;-73
2023/04/02 03:41:04;;;;;;;11.80;2.50;;;13.10;96.70;;;;;;5137048;27;20039;-72
2023/04/02 03:43:39;;;;;;;8.50;2.10;;;13.00;96.70;;;;;;5142110;27;20051;-73
2023/04/02 03:46:21;;;;;;;9.23;2.03;;;13.00;96.70;;;;;;5141433;27;20146;-71
2023/04/02 03:48:53;;;;;;;7.82;2.03;;;13.00;96.70;;;;;;5136054;27;20043;-72
2023/04/02 03:51:26;;;;;;;8.18;2.15;;;12.90;96.70;;;;;;5139007;27;20045;-71
2023/04/02 03:53:55;;;;;;;9.73;2.45;;;12.90;96.70;;;;;;5133449;27;20596;-72
2023/04/02 03:56:28;;;;;;;10.00;2.25;;;12.80;96.70;;;;;;5141882;27;20035;-72
2023/04/02 03:59:06;;;;;;;10.40;2.05;;;12.90;96.70;;;;;;5121194;27;20051;-72
2023/04/02 04:01:41;;;;;;;11.23;2.28;;;13.00;96.70;;;;;;5140662;27;20038;-72
2023/04/02 04:04:15;;;;;;;7.82;2.15;;;12.90;96.70;;;;;;5136490;27;20087;-71
2023/04/02 04:06:48;;;;;;;8.77;2.30;;;12.80;96.70;;;;;;5118771;27;20095;-72
2023/04/02 04:09:19;;;;;;;7.75;2.20;;;12.90;96.70;;;;;;5135565;27;20487;-72
2023/04/02 04:11:50;;;;;;;6.32;1.55;;;12.80;96.70;;;;;;5136740;27;20047;-71
2023/04/02 04:14:26;;;;;;;9.00;2.10;;;12.70;96.70;;;;;;5139408;27;20098;-72
2023/04/02 04:17:03;;;;;;;7.07;1.88;;;12.70;96.70;;;;;;5138240;27;21687;-71
2023/04/02 04:19:44;;;;;;;7.32;1.75;;;12.60;96.70;;;;;;5120492;27;20042;-72
2023/04/02 04:22:17;;;;;;;5.80;1.67;;;12.40;96.70;;;;;;5143606;27;20083;-72
2023/04/02 04:24:49;;;;;;;6.53;1.80;;;12.60;96.70;;;;;;5139129;27;20158;-72
2023/04/02 04:27:32;;;;;;;6.93;1.70;;;12.60;96.70;;;;;;5125078;27;20042;-72
2023/04/02 04:30:06;;;;;;;8.55;2.13;;;12.50;96.70;;;;;;5142530;27;20526;-72
2023/04/02 04:32:49;;;;;;;6.50;1.60;;;12.60;96.70;;;;;;5136459;27;20047;-71
2023/04/02 04:35:26;;;;;;;7.10;1.80;;;12.40;96.70;;;;;;5140532;27;20325;-72
2023/04/02 04:38:02;;;;;;;7.70;1.92;;;12.50;96.70;;;;;;5139363;27;20123;-72
2023/04/02 04:40:35;;;;;;;9.25;2.20;;;12.50;96.70;;;;;;5138937;27;20051;-72
2023/04/02 04:43:08;;;;;;;8.20;1.80;;;12.30;96.70;;;;;;5123820;27;20047;-71
2023/04/02 04:45:42;;;;;;;13.75;2.97;;;12.10;96.70;;;;;;5140660;27;20050;-72
2023/04/02 04:48:18;;;;;;;9.02;2.08;;;12.10;96.70;;;;;;5140792;27;20489;-71
2023/04/02 04:50:52;;;;;;;10.45;2.17;;;12.10;96.70;;;;;;5155319;27;20099;-72
2023/04/02 04:53:22;;;;;;;9.55;2.33;;;12.10;96.70;;;;;;5140587;27;20046;-72
2023/04/02 04:55:54;;;;;;;8.70;2.70;;;12.10;96.70;;;;;;5140708;27;20047;-72
2023/04/02 04:58:32;;;;;;;9.57;2.30;;;12.10;96.70;;;;;;5142635;27;20050;-72
2023/04/02 05:01:06;;;;;;;7.53;2.38;;;12.20;96.70;;;;;;5166025;27;20590;-72
2023/04/02 05:03:42;;;;;;;13.43;2.88;;;12.20;96.70;;;;;;5139301;27;20790;-72
2023/04/02 05:06:31;;;;;;;8.18;2.30;;;12.20;96.70;;;;;;5139472;27;20043;-72
2023/04/02 05:09:07;;;;;;;8.93;2.13;;;12.20;96.70;;;;;;5120526;27;20050;-72
2023/04/02 05:11:41;;;;;;;6.20;2.10;;;12.20;96.70;;;;;;5138339;27;20046;-72
2023/04/02 05:14:18;;;;;;;7.78;2.40;;;12.20;96.70;;;;;;5139804;27;20099;-72
2023/04/02 05:16:49;;;;;;;;;;;12.30;96.70;;;;;;5122181;27;20047;-71
2023/04/02 05:19:22;;;;;;;8.95;2.15;;;12.40;96.70;;;;;;5132963;27;19926;-71
2023/04/02 05:21:58;;;;;;;12.05;2.80;;;12.30;96.70;;;;;;5133099;27;20099;-72
2023/04/02 05:24:43;;;;;;;7.80;2.13;;;12.40;96.70;;;;;;5143803;27;20415;-72
2023/04/02 05:27:22;;;;;;;7.72;2.03;;;12.30;96.70;;;;;;5144760;27;20062;-71
2023/04/02 05:29:55;;;;;;;8.48;2.35;;;12.40;96.70;;;;;;5127591;27;20046;-71
2023/04/02 05:32:29;;;;;;;9.52;2.00;;;12.40;96.70;;;;;;5143691;27;20065;-71
2023/04/02 05:34:58;;;;;;;9.50;1.98;;;12.40;96.70;;;;;;5125466;27;20061;-71
2023/04/02 05:37:29;;;;;;;8.55;2.35;;;12.40;96.70;;;;;;5144893;27;20060;-72
2023/04/02 05:40:10;;;;;;;10.02;2.00;;;12.50;96.70;;;;;;5137641;27;20075;-72
2023/04/02 05:42:44;;;;;;;6.05;1.60;;;12.50;96.70;;;;;;5143286;27;20053;-72
2023/04/02 05:45:21;;;;;;;7.43;2.00;;;12.40;96.70;;;;;;5145494;27;20050;-71
2023/04/02 05:47:53;;;;;;;8.38;1.90;;;12.50;96.70;;;;;;5143414;27;20049;-72
2023/04/02 05:50:31;;;;;;;5.65;1.80;;;12.40;96.70;;;;;;5140302;27;20053;-71
2023/04/02 05:53:08;;;;;;;8.52;2.67;;;12.40;96.70;;;;;;5137017;27;20038;-72
2023/04/02 05:55:43;;;;;;;9.68;1.95;;;12.50;96.70;;;;;;5137841;27;20127;-72
2023/04/02 05:58:20;;;;;;;9.27;1.77;;;12.50;96.70;;;;;;5139704;27;20043;-72
2023/04/02 06:01:24;;;;;;;7.75;2.10;;;12.50;96.70;;;;;;5135266;27;20076;-71
2023/04/02 06:03:59;;;;;;;6.20;1.90;;;12.60;96.70;;;;;;5125059;27;20050;-71
2023/04/02 06:06:45;;;;;;;9.82;1.92;;;12.60;96.70;;;;;;5141945;27;20644;-72
2023/04/02 06:09:23;;;;;;;9.65;2.33;;;12.60;96.70;;;;;;5135251;27;20062;-72
2023/04/02 06:11:58;;;;;;;9.63;2.90;;;12.40;96.70;;;;;;5144376;27;20038;-72
2023/04/02 06:14:26;;;;;;;8.32;2.40;;;12.20;96.70;;;;;;5144644;27;20125;-71
2023/04/02 06:16:54;;;;;;;7.78;2.20;;;12.10;96.70;;;;;;5142692;27;20042;-71
2023/04/02 06:19:28;;;;;;;10.18;3.17;;;12.10;96.70;;;;;;5144856;27;21132;-72
2023/04/02 06:22:06;;;;;;;10.85;2.67;;;12.10;96.70;;;;;;5144897;27;20495;-72
2023/04/02 06:24:38;;;;;;;8.15;2.30;;;12.20;96.70;;;;;;5142282;27;20087;-72
2023/04/02 06:27:13;;;;;;;8.98;2.90;;;12.20;96.70;;;;;;5132099;27;20053;-71
2023/04/02 06:29:45;;;;;;;11.60;2.90;;;12.20;96.70;;;;;;5122763;27;20411;-72
2023/04/02 06:32:20;;;;;;;7.30;2.40;;;12.20;96.70;;;;;;5142813;27;20042;-71
2023/04/02 06:34:48;;;;;;;11.45;2.92;;;12.20;96.70;;;;;;5123520;27;20054;-71
2023/04/02 06:37:24;;;;;;;8.82;3.03;;;12.20;96.70;;;;;;5124860;27;20074;-71
2023/04/02 06:40:16;;;;;;;10.77;3.22;;;12.20;96.70;;;;;;5134331;27;20495;-72
2023/04/02 06:42:47;;;;;;;11.70;3.13;;;12.30;96.70;;;;;;5144363;27;20125;-72
2023/04/02 06:45:55;;;;;;;;;;;12.20;96.70;;;;;;5142681;27;20047;-72
2023/04/02 06:49:02;;;;;;;10.65;3.83;;;12.20;96.70;;;;;;5142306;27;19930;-72
2023/04/02 06:51:31;;;;;;;14.30;5.22;;;12.20;96.70;;;;;;5142173;27;20034;-71
2023/04/02 06:53:59;;;;;;;14.68;5.95;;;12.20;96.70;;;;;;5124264;27;20594;-72
2023/04/02 06:56:40;;;;;;;14.05;5.55;;;12.20;96.70;;;;;;5141254;27;20468;-71
2023/04/02 06:59:11;;;;;;;13.27;5.50;;;12.30;96.70;;;;;;5142861;27;20138;-72
2023/04/02 07:01:44;;;;;;;10.25;5.60;;;12.40;96.70;;;;;;5126503;27;20162;-72
2023/04/02 07:04:14;;;;;;;12.23;6.03;;;12.40;96.70;;;;;;5143609;27;20142;-71
2023/04/02 07:06:45;;;;;;;14.55;5.93;;;12.50;96.70;;;;;;5123475;27;20043;-72
2023/04/02 07:09:15;;;;;;;17.67;6.07;;;12.60;96.70;;;;;;5143363;27;20588;-72
2023/04/02 07:11:48;;;;;;;14.35;5.20;;;12.70;96.70;;;;;;5143141;27;20034;-72
2023/04/02 07:14:18;;;;;;;17.08;4.75;;;12.70;96.70;;;;;;5142904;27;20076;-72
2023/04/02 07:16:46;;;;;;;14.40;5.20;;;12.70;96.70;;;;;;5143017;27;20073;-72
2023/04/02 07:19:18;;;;;;;11.43;4.97;;;12.80;96.70;;;;;;5142217;27;20057;-72
2023/04/02 07:21:47;;;;;;;12.85;5.07;;;12.80;96.70;;;;;;5143201;27;20084;-72
2023/04/02 07:24:16;;;;;;;14.48;4.72;;;12.90;96.70;;;;;;5141731;27;20043;-71
2023/04/02 07:26:46;;;;;;;16.90;5.03;;;13.00;96.70;;;;;;5139647;27;20035;-72
2023/04/02 07:29:16;;;;;;;13.18;4.38;;;13.10;96.70;;;;;;5137285;27;20442;-71
2023/04/02 07:31:44;;;;;;;13.63;4.63;;;13.00;96.70;;;;;;5144284;27;20046;-71
2023/04/02 07:34:12;;;;;;;15.35;4.68;;;13.10;96.70;;;;;;5141148;27;20062;-72
2023/04/02 07:36:40;;;;;;;11.95;4.63;;;13.20;96.70;;;;;;5138231;27;20043;-72
2023/04/02 07:39:08;;;;;;;13.93;4.78;;;13.20;96.70;;;;;;5142248;27;20479;-71
2023/04/02 07:41:50;;;;;;;12.27;4.18;;;13.30;96.70;;;;;;5144244;27;20063;-72
2023/04/02 07:44:20;;;;;;;13.02;4.65;;;13.40;96.70;;;;;;5133659;27;20118;-72
2023/04/02 07:46:47;;;;;;;14.88;4.93;;;13.50;96.70;;;;;;5142914;27;20134;-72
2023/04/02 07:49:15;;;;;;;14.30;6.05;;;13.60;96.70;;;;;;5143157;27;20099;-72
2023/04/02 07:51:43;;;;;;;13.77;4.93;;;13.60;96.70;;;;;;5139533;27;20038;-71
2023/04/02 07:54:11;;;;;;;14.80;5.32;;;13.60;96.70;;;;;;5140129;27;20125;-72
2023/04/02 07:56:39;;;;;;;15.98;5.30;;;13.80;96.70;;;;;;5127140;27;20031;-72
2023/04/02 07:59:07;;;;;;;12.93;4.70;;;13.90;96.70;;;;;;5121492;27;20070;-74
2023/04/02 08:01:36;;;;;;;16.00;5.20;;;14.00;96.70;;;;;;5141347;27;20091;-71
2023/04/02 08:04:06;;;;;;;19.73;5.47;;;14.10;96.70;;;;;;5140399;27;20111;-72
2023/04/02 08:06:34;;;;;;;15.32;5.20;;;14.20;96.70;;;;;;5138643;27;20458;-72
2023/04/02 08:09:03;;;;;;;13.82;4.30;;;14.30;96.70;;;;;;5137751;27;20108;-71
2023/04/02 08:11:31;;;;;;;18.52;5.13;;;14.40;96.70;;;;;;5140923;27;20590;-72
2023/04/02 08:13:58;;;;;;;16.48;4.72;;;14.50;96.70;;;;;;5139491;27;20066;-72
2023/04/02 08:16:26;;;;;;;21.08;5.13;;;14.50;96.70;;;;;;5137125;27;20062;-72
2023/04/02 08:18:57;;;;;;;13.73;4.63;;;14.60;96.70;;;;;;5138281;27;20415;-72
2023/04/02 08:21:25;;;;;;;15.20;4.53;;;14.60;96.70;;;;;;5131613;27;20521;-73
2023/04/02 08:23:53;;;;;;;13.63;5.15;;;14.70;96.70;;;;;;5140657;27;20031;-72
2023/04/02 08:26:21;;;;;;;15.60;4.25;;;14.70;96.70;;;;;;5123524;27;20531;-72
2023/04/02 08:28:49;;;;;;;15.80;4.50;;;14.70;96.70;;;;;;5142324;27;20483;-72
2023/04/02 08:31:17;;;;;;;12.30;3.67;;;14.90;96.70;;;;;;5142800;27;20046;-74
2023/04/02 08:33:45;;;;;;;17.92;5.47;;;15.00;96.70;;;;;;5141797;27;20065;-73
2023/04/02 08:36:17;;;;;;;16.13;4.70;;;15.10;96.70;;;;;;5142068;27;20046;-76
2023/04/02 08:38:45;;;;;;;15.52;3.97;;;15.20;96.70;;;;;;5139292;27;20043;-73
2023/04/02 08:41:23;;;;;;;13.27;3.60;;;15.20;96.70;;;;;;5136443;27;20066;-73
2023/04/02 08:44:16;;;;;;;15.13;3.97;;;15.30;96.70;;;;;;5143543;27;20094;-72
2023/04/02 08:46:49;;;;;;;17.92;4.68;;;15.30;96.70;;;;;;5135748;27;20062;-72
2023/04/02 08:49:25;;;;;;;19.63;4.68;;;15.40;96.70;;;;;;5141564;27;20041;-72
2023/04/02 08:51:55;;;;;;;11.82;3.95;;;15.50;96.70;;;;;;5141622;27;20046;-71
2023/04/02 08:54:27;;;;;;;14.80;4.57;;;15.60;96.70;;;;;;5142138;27;20502;-72
2023/04/02 08:57:00;;;;;;;20.77;5.22;;;15.60;96.70;;;;;;5138092;27;20049;-72
2023/04/02 08:59:33;;;;;;;18.63;4.70;;;15.60;96.70;;;;;;5140357;27;20070;-72
2023/04/02 09:02:18;;;;;;;13.13;3.60;;;15.70;96.70;;;;;;5141843;27;20099;-72
2023/04/02 09:04:46;;;;;;;19.83;4.20;;;15.70;96.70;;;;;;5143510;27;20857;-72
2023/04/02 09:07:16;;;;;;;11.70;4.50;;;15.90;96.70;;;;;;5143283;27;20073;-72
2023/04/02 09:09:49;;;;;;;16.55;4.25;;;16.00;96.70;;;;;;5141263;27;20501;-72
2023/04/02 09:12:19;;;;;;;11.93;3.83;;;16.10;96.70;;;;;;5141234;27;20489;-72
2023/04/02 09:15:01;;;;;;;17.42;4.57;;;16.10;96.70;;;;;;5122426;27;20049;-72
2023/04/02 09:17:30;;;;;;;14.13;4.30;;;16.10;96.70;;;;;;5138976;27;20544;-73
2023/04/02 09:20:20;;;;;;;12.68;4.43;;;16.20;96.70;;;;;;5141416;27;20051;-73
2023/04/02 09:22:50;;;;;;;16.73;3.63;;;16.30;96.70;;;;;;5140947;27;20046;-73
2023/04/02 09:25:21;;;;;;;13.05;3.70;;;16.40;96.70;;;;;;5143051;27;20512;-74
2023/04/02 09:27:51;;;;;;;13.40;3.75;;;16.50;96.70;;;;;;5138564;27;20039;-73
2023/04/02 09:30:34;;;;;;;13.45;4.22;;;16.60;96.70;;;;;;5141532;27;20066;-73
2023/04/02 09:33:07;;;;;;;10.60;4.07;;;16.70;96.70;;;;;;5141327;27;20539;-72
2023/04/02 09:35:56;;;;;;;13.20;4.13;;;16.80;96.70;;;;;;5124556;27;20486;-73
2023/04/02 09:38:29;;;;;;;14.57;3.95;;;16.90;96.70;;;;;;5141814;27;20570;-73
2023/04/02 09:41:00;;;;;;;10.85;3.78;;;17.10;96.70;;;;;;5138885;27;20050;-73
2023/04/02 09:43:29;;;;;;;15.13;4.68;;;17.10;96.70;;;;;;5142316;27;20039;-73
2023/04/02 09:46:01;;;;;;;16.75;4.85;;;17.20;96.70;;;;;;5142407;27;20125;-73
2023/04/02 09:48:33;;;;;;;14.85;3.53;;;17.30;96.70;;;;;;5140003;27;20405;-73
2023/04/02 09:51:12;;;;;;;13.80;3.45;;;17.20;96.70;;;;;;5139755;27;20733;-74
2023/04/02 09:53:44;;;;;;;10.32;3.63;;;17.30;96.70;;;;;;5142095;27;20065;-73
2023/04/02 09:56:15;;;;;;;11.82;3.88;;;17.30;96.70;;;;;;5141400;27;20137;-73
2023/04/02 09:58:44;;;;;;;10.02;3.88;;;17.40;96.70;;;;;;5140187;27;20141;-73
2023/04/02 10:01:29;;;;;;;8.98;3.17;;;17.50;96.70;;;;;;5142112;27;20042;-74
2023/04/02 10:03:58;;;;;;;10.60;3.47;;;17.50;96.70;;;;;;5140963;27;20050;-73
2023/04/02 10:06:28;;;;;;;12.07;3.15;;;17.80;96.70;;;;;;5138406;27;20041;-73
2023/04/02 10:08:58;;;;;;;14.38;3.75;;;17.80;96.70;;;;;;5134391;27;20039;-73
2023/04/02 10:11:30;;;;;;;11.85;3.30;;;17.90;96.70;;;;;;5142593;27;20586;-73
2023/04/02 10:14:19;;;;;;;13.57;3.60;;;17.80;96.70;;;;;;5131012;27;20058;-73
2023/04/02 10:16:50;;;;;;;10.95;3.20;;;17.70;96.70;;;;;;5126993;27;20074;-74
2023/04/02 10:19:26;;;;;;;7.65;3.13;;;17.90;96.70;;;;;;5126730;27;20647;-73
2023/04/02 10:21:56;;;;;;;16.83;3.35;;;18.10;96.70;;;;;;5139786;27;20075;-73
2023/04/02 10:24:39;;;;;;;11.85;3.63;;;18.10;96.70;;;;;;5145056;27;20103;-74
2023/04/02 10:27:21;;;;;;;10.20;3.00;;;18.20;96.70;;;;;;5146091;27;20035;-74
2023/04/02 10:30:14;;;;;;;9.10;3.08;;;18.30;96.70;;;;;;5136515;27;20579;-73
2023/04/02 10:32:49;;;;;;;7.28;2.95;;;18.50;96.70;;;;;;5142617;27;20117;-73
2023/04/02 10:35:38;;;;;;;8.02;3.13;;;18.80;96.70;;;;;;5142728;27;20051;-74
2023/04/02 10:38:20;;;;;;;9.57;3.53;;;18.80;96.70;;;;;;5145544;27;20121;-73
2023/04/02 10:41:26;;;;;;;12.27;3.35;;;19.00;96.70;;;;;;5126881;27;20053;-73
2023/04/02 10:44:36;;;;;;;8.38;2.90;;;19.40;96.70;;;;;;5136296;27;20050;-73
2023/04/02 10:47:11;;;;;;;9.38;3.17;;;19.40;96.70;;;;;;5119929;27;20062;-74
2023/04/02 10:49:47;;;;;;;10.27;3.00;;;19.60;96.70;;;;;;5138494;27;20102;-74
2023/04/02 10:52:20;;;;;;;10.15;2.75;;;19.70;96.70;;;;;;5143870;27;20392;-73
2023/04/02 10:54:50;;;;;;;6.35;2.17;;;19.60;96.70;;;;;;5125182;27;20055;-73
2023/04/02 10:57:35;;;;;;;6.68;1.50;;;19.60;96.70;;;;;;5146105;27;20038;-73
2023/04/02 11:00:15;;;;;;;7.25;1.80;;;19.40;96.70;;;;;;5145824;27;20073;-74
2023/04/02 11:02:48;;;;;;;8.38;2.65;;;19.10;96.70;;;;;;5137573;27;20090;-73
2023/04/02 11:05:22;;;;;;;4.68;1.90;;;18.70;96.70;;;;;;5143988;27;20507;-73
2023/04/02 11:08:32;;;;;;;5.80;1.40;;;18.60;96.70;;;;;;5125410;27;20069;-73
2023/04/02 11:11:06;;;;;;;6.22;1.52;;;18.60;96.70;;;;;;5107276;27;20401;-74
2023/04/02 11:13:45;;;;;;;3.38;1.33;;;18.40;96.70;;;;;;5144083;27;20042;-73
2023/04/02 11:16:14;;;;;;;2.92;1.17;;;18.20;96.70;;;;;;5143323;27;20042;-74
2023/04/02 11:19:02;;;;;;;3.67;1.10;;;18.10;96.70;;;;;;5126533;27;20503;-73
2023/04/02 11:21:38;;;;;;;5.82;1.52;;;18.10;96.70;;;;;;5144223;27;20051;-73
2023/04/02 11:24:36;;;;;;;5.60;1.23;;;18.10;96.70;;;;;;5143750;27;20050;-73
2023/04/02 11:27:14;;;;;;;8.52;1.35;;;18.20;96.70;;;;;;5143686;27;20042;-73
2023/04/02 11:29:46;;;;;;;2.95;1.00;;;18.70;96.70;;;;;;5142723;27;20051;-73
2023/04/02 11:32:34;;;;;;;3.15;0.90;;;18.90;96.70;;;;;;5140543;27;20121;-73
2023/04/02 11:35:34;;;;;;;4.15;0.90;;;19.10;96.70;;;;;;5144950;27;20049;-73
2023/04/02 11:38:46;;;;;;;3.08;0.82;;;19.40;96.70;;;;;;5140237;27;20480;-75
2023/04/02 11:41:50;;;;;;;3.33;0.90;;;19.60;96.70;;;;;;5083142;27;20758;-75
2023/04/02 11:44:23;;;;;;;2.97;0.80;;;19.40;96.70;;;;;;5143077;27;20053;-75
2023/04/02 11:47:16;;;;;;;4.30;1.13;;;19.40;96.70;;;;;;5143396;27;20050;-74
2023/04/02 11:50:01;;;;;;;1.52;0.60;;;19.30;96.70;;;;;;5142683;27;20047;-74
2023/04/02 11:52:49;;;;;;;2.80;1.20;;;19.20;96.70;;;;;;5141243;27;20085;-74
2023/04/02 11:55:23;;;;;;;5.72;1.20;;;19.00;96.70;;;;;;5144367;27;20051;-74
2023/04/02 11:58:29;;;;;;;2.13;0.90;;;18.90;96.70;;;;;;5143005;27;20702;-74
2023/04/02 12:01:31;;;;;;;2.53;0.68;;;18.80;96.70;;;;;;5137905;27;20577;-74
2023/04/02 12:04:53;;;;;;;1.33;0.52;;;18.70;96.70;;;;;;5136380;27;20043;-74
2023/04/02 12:07:54;;;;;;;2.72;0.80;;;18.70;96.70;;;;;;5078429;28;20047;-74
2023/04/02 12:10:26;;;;;;;2.40;0.73;;;18.60;96.70;;;;;;5125120;27;20126;-75
2023/04/02 12:12:55;;;;;;;2.17;0.65;;;18.60;96.70;;;;;;5144745;27;20039;-74
2023/04/02 12:15:45;;;;;;;1.98;0.70;;;18.60;96.70;;;;;;5144244;27;20043;-73
2023/04/02 12:18:16;;;;;;;2.47;0.68;;;18.60;96.70;;;;;;5122079;27;20510;-75
2023/04/02 12:20:51;;;;;;;3.75;1.00;;;18.60;96.70;;;;;;5141774;27;20062;-74
2023/04/02 12:23:22;;;;;;;5.88;1.98;;;18.70;96.70;;;;;;5142524;27;20073;-74
2023/04/02 12:25:57;;;;;;;5.95;1.60;;;18.70;96.70;;;;;;5141887;27;20153;-75
2023/04/02 12:28:30;;;;;;;2.92;0.90;;;18.80;96.70;;;;;;5134123;27;20099;-74
2023/04/02 12:31:11;;;;;;;2.50;1.33;;;18.80;96.70;;;;;;5139230;27;20473;-73
2023/04/02 12:33:51;;;;;;;4.47;1.33;;;18.90;96.70;;;;;;5143779;27;20621;-74
2023/04/02 12:36:22;;;;;;;2.72;1.35;;;19.00;96.70;;;;;;5143691;27;20208;-73
2023/04/02 12:38:52;;;;;;;3.92;1.30;;;19.10;96.70;;;;;;5141339;27;20713;-74
2023/04/02 12:41:23;;;;;;;1.98;0.80;;;19.20;96.70;;;;;;5133951;27;20049;-74
2023/04/02 12:44:00;;;;;;;2.45;1.08;;;19.30;96.70;;;;;;5143834;27;20054;-74
2023/04/02 12:46:29;;;;;;;3.80;1.20;;;19.30;96.70;;;;;;5141857;27;20323;-75
2023/04/02 12:49:04;;;;;;;2.53;0.82;;;19.40;96.70;;;;;;5141769;27;20050;-75
2023/04/02 12:51:35;;;;;;;6.47;1.27;;;19.50;96.70;;;;;;5131241;27;20527;-73
2023/04/02 12:54:05;;;;;;;5.38;1.70;;;19.50;96.70;;;;;;5142919;27;20636;-74
2023/04/02 12:56:32;;;;;;;3.10;0.82;;;19.50;96.70;;;;;;5141845;27;20055;-73
2023/04/02 12:59:01;;;;;;;2.33;0.88;;;19.50;96.70;;;;;;5142158;27;20057;-74
2023/04/02 13:01:30;;;;;;;5.07;1.17;;;19.40;96.70;;;;;;5141265;27;20602;-74
2023/04/02 13:04:00;;;;;;;7.15;1.52;;;19.30;96.70;;;;;;5143526;27;20573;-75
2023/04/02 13:06:29;;;;;;;3.30;1.30;;;19.30;96.70;;;;;;5142168;27;20070;-73
2023/04/02 13:09:00;;;;;;;6.18;1.92;;;19.30;96.70;;;;;;5139044;27;20061;-74
2023/04/02 13:11:37;;;;;;;2.33;0.98;;;19.30;96.70;;;;;;5135903;27;20617;-74
2023/04/02 13:14:08;;;;;;;2.47;1.15;;;19.30;96.70;;;;;;5142304;27;20083;-75
2023/04/02 13:16:39;;;;;;;8.60;0.98;;;19.30;96.70;;;;;;5142178;27;20150;-74
2023/04/02 13:19:35;;;;;;;2.67;0.75;;;19.20;96.70;;;;;;5141556;27;20134;-74
2023/04/02 13:22:25;;;;;;;3.22;0.80;;;18.90;96.70;;;;;;5141370;27;20450;-74
2023/04/02 13:24:56;;;;;;;2.60;0.50;;;18.60;96.70;;;;;;5138437;27;20039;-74
2023/04/02 13:27:24;;;;;;;3.05;0.60;;;18.40;96.70;;;;;;5143746;27;20122;-75